AirNav   GEt a FREE Bose Revolve Bluetooth Speaker
 
 1411 users online  

05IN Cooper Airport
Belleville, Indiana, USA

GOING TO BELLEVILLE?


FAA INFORMATION EFFECTIVE 06 DECEMBER 2018

Location

FAA Identifier: 05IN
Lat/Long: 39-38-31.1670N / 086-30-14.9910W
39-38.519450N / 086-30.249850W
39.6419908 / -86.5041642
(estimated)
Elevation: 860 ft. / 262 m (estimated)
Variation: 02W (1985)
From city: 3 miles SW of BELLEVILLE, IN
Time zone: UTC -5 (UTC -4 during Daylight Saving Time)
Zip code: 46118

Airport Operations

Airport use: Private use. Permission required prior to landing
Activation date: 01/1976
Control tower: no
ARTCC: INDIANAPOLIS CENTER
FSS: TERRE HAUTE FLIGHT SERVICE STATION
Attendance: UNATNDD
Segmented circle: no

Airport Communications

WX AWOS-3 at 2R2 (6 nm N): 118.025 (317-718-4872)
WX ASOS at IND (11 nm NE): PHONE 317-241-0348
WX AWOS-3 at GPC (14 nm W): 118.125 (765-653-1789)
WX ASOS at EYE (15 nm NE): 121.575 (317-329-1754)
WX AWOS-3 at 8A4 (18 nm NE): 118.250 (317-955-3160)
WX AWOS-3P at HFY (19 nm E): 118.525 (317-882-5862)

Nearby radio navigation aids

VOR radial/distance  VOR name  Freq  Var
VHPr210/12.1BRICKYARD VORTAC116.3001E
OOMr012/30.3HOOSIER VORTAC110.2002W
SHBr270/31.4SHELBYVILLE VOR/DME112.0001E
TTHr073/35.7TERRE HAUTE VORTAC115.3002E

 
NDB name  Hdg/Dist  Freq  Var  ID
METROPOLITAN233/27.433803WUMP ..- -- .--.
CRAWFORDSVILLE141/27.838804WCFJ -.-. ..-. .---

Airport Services

Runway Information

Runway 8/26

Dimensions: 2000 x 100 ft. / 610 x 30 m
Surface: turf
RUNWAY 8  RUNWAY 26
Traffic pattern: leftleft

Airport Ownership and Management from official FAA records

Ownership: Privately-owned
Owner: MICHAEL COOPER
1075 E 800 S
CLAYTON, IN 46118
Phone 317-539-2809
Manager: MICHAEL COOPER
1075 E 800 S
CLAYTON, IN 46118
Phone 317-539-2809

Airport Operational Statistics

Aircraft based on the field: 2
Single engine airplanes: 2
    

Additional Remarks

FOR CD CTC INDIANAPOLIS APCH AT 317-227-5743.

Instrument Procedures

There are no published instrument procedures at 05IN.

Some nearby airports with instrument procedures:

2R2 - Hendricks County Airport-Gordon Graham Field (6 nm N)
KIND - Indianapolis International Airport (11 nm NE)
KGPC - Putnam County Regional Airport (14 nm W)
KEYE - Eagle Creek Airpark (15 nm NE)
8A4 - Indianapolis Downtown Heliport (18 nm NE)
KHFY - Indy South Greenwood Airport (19 nm E)
 
Loc | Ops | Rwys | IFR | FBO | Links
Com | Nav | Svcs | Stats | Notes


 
Area around 05IN (Cooper Airport)
 
Road maps at: MapQuest Bing Google
 
Aerial photo
No photo
 
Sectional chart

 
Airport distance calculator
Flying to Cooper Airport? Find the distance to fly.

From to 05IN

Sunrise and sunset
Times for 17-Dec-2018
 Local
(UTC-5)
 Zulu
(UTC)
Morning civil twilight07:3212:32
Sunrise08:0213:02
Sunset17:2222:22
Evening civil twilight17:5322:53

Current date and time
Zulu (UTC)  17-Dec-2018 15:56:34
Local (UTC-5)  17-Dec-2018 10:56:34
 
METAR
KIND 
11nm NE 
171454Z 31007KT 10SM FEW180 SCT220 02/M02 A3018 RMK AO2 SLP225 T00221017 53015
KGPC 
14nm W 
171535Z AUTO 00000KT 7SM CLR 02/M03 A3020 RMK AO2
KEYE 
15nm NE 
171453Z AUTO A3017 RMK AO2 SLPNO 53018 PWINO FZRANO $
KHFY 
19nm E 
171535Z AUTO 30005KT 10SM CLR 03/M01 A3018 RMK AO2 T00301011
TAF
KIND 
11nm NE 
171414Z 1714/1818 32009KT P6SM FEW100 SCT250 FM180100 VRB05KT P6SM FEW250
NOTAMs
Click for the latest NOTAMs
NOTAMs are issued by the DoD/FAA and will open in a separate window not controlled by AirNav.

 

 
 

Would you like to see your business listed on this page?

 If your business provides an interesting product or service to pilots, flight crews, aircraft, or users of the Cooper Airport, you should consider listing it here.  To start the listing process, click on the button below
 
Add a business
 

Other Pages about Cooper Airport

Update a link
 
Copyright © AirNav, LLC. All rights reserved. Privacy Policy  Contact